createdAt,value
2022-11-24T00:00:13.684Z,2.43
2022-11-24T00:03:15.444Z,1.90
2022-11-24T00:06:17.601Z,2.90
2022-11-24T00:09:19.473Z,3.47
2022-11-24T00:12:21.109Z,2.77
2022-11-24T00:15:22.768Z,3.23
2022-11-24T00:18:24.351Z,2.23
2022-11-24T00:21:30.049Z,2.27
2022-11-24T00:24:31.836Z,2.33
2022-11-24T00:27:33.719Z,2.17
2022-11-24T00:30:38.408Z,3.20
2022-11-24T00:33:40.608Z,3.43
2022-11-24T00:36:42.587Z,2.23
2022-11-24T00:39:44.203Z,2.87
2022-11-24T00:42:45.814Z,2.20
2022-11-24T00:45:47.538Z,3.07
2022-11-24T00:48:49.708Z,2.43
2022-11-24T00:51:51.334Z,2.97
2022-11-24T00:54:52.923Z,4.53
2022-11-24T00:57:54.581Z,2.83
2022-11-24T01:01:15.822Z,3.10
2022-11-24T01:04:17.971Z,4.30
2022-11-24T01:07:19.595Z,4.00
2022-11-24T01:10:21.279Z,2.90
2022-11-24T01:13:22.884Z,3.60
2022-11-24T01:16:31.300Z,4.90
2022-11-24T01:19:33.139Z,7.03
2022-11-24T01:22:35.108Z,5.03
2022-11-24T01:25:39.730Z,3.87
2022-11-24T01:28:46.615Z,3.40
2022-11-24T01:31:49.294Z,8.13
2022-11-24T01:34:50.983Z,4.90
2022-11-24T01:37:52.631Z,7.23
2022-11-24T01:41:12.499Z,5.77
2022-11-24T01:44:28.976Z,8.90
2022-11-24T01:47:38.483Z,4.73
2022-11-24T01:50:41.985Z,8.50
2022-11-24T01:53:50.768Z,5.53
2022-11-24T01:56:57.329Z,5.87
2022-11-24T02:00:08.961Z,4.20
2022-11-24T02:03:14.391Z,7.10
2022-11-24T02:06:45.532Z,4.83
2022-11-24T02:09:52.886Z,5.50
2022-11-24T02:12:57.574Z,8.47
2022-11-24T02:15:59.713Z,5.67
2022-11-24T02:19:03.429Z,6.37
2022-11-24T02:22:07.985Z,6.30
2022-11-24T02:25:16.052Z,7.47
2022-11-24T02:28:21.154Z,9.63
2022-11-24T02:31:23.004Z,6.67
2022-11-24T02:34:24.704Z,8.83
2022-11-24T02:37:26.299Z,8.30
2022-11-24T02:40:30.861Z,8.03
2022-11-24T02:43:39.094Z,12.13
2022-11-24T02:46:40.910Z,6.30
2022-11-24T02:49:42.666Z,10.87
2022-11-24T02:52:44.419Z,7.63
2022-11-24T02:55:46.076Z,6.60
2022-11-24T02:58:47.697Z,7.70
2022-11-24T03:01:49.437Z,6.17
2022-11-24T03:04:51.087Z,6.33
2022-11-24T03:07:52.775Z,12.13
2022-11-24T03:10:54.612Z,8.57
2022-11-24T03:13:56.298Z,6.37
2022-11-24T03:16:58.037Z,11.27
2022-11-24T03:20:04.916Z,8.20
2022-11-24T03:23:07.070Z,7.33
2022-11-24T03:26:14.475Z,10.30
2022-11-24T03:29:16.819Z,7.97
2022-11-24T03:32:18.515Z,7.30
2022-11-24T03:35:21.588Z,10.57
2022-11-24T03:38:23.402Z,5.57
2022-11-24T03:41:25.159Z,6.40
2022-11-24T03:44:26.813Z,13.10
2022-11-24T03:47:28.471Z,10.10
2022-11-24T03:50:30.293Z,10.60
2022-11-24T03:53:33.521Z,7.47
2022-11-24T03:56:35.160Z,8.37
2022-11-24T03:59:36.804Z,7.03
2022-11-24T04:02:38.636Z,6.87
2022-11-24T04:05:40.378Z,5.57
2022-11-24T04:08:41.980Z,13.73
2022-11-24T04:12:02.132Z,7.37
2022-11-24T04:15:03.952Z,6.50
2022-11-24T04:18:05.936Z,8.23
2022-11-24T04:21:07.712Z,10.03
2022-11-24T04:24:09.466Z,15.47
2022-11-24T04:27:11.061Z,6.97
2022-11-24T04:30:12.986Z,7.27
2022-11-24T04:33:15.334Z,10.77
2022-11-24T04:36:16.963Z,7.47
2022-11-24T04:39:22.942Z,7.07
2022-11-24T04:42:28.382Z,8.07
2022-11-24T04:45:30.017Z,10.37
2022-11-24T04:48:32.667Z,7.60
2022-11-24T04:51:34.282Z,8.93
2022-11-24T04:54:36.630Z,8.67
2022-11-24T04:57:38.557Z,8.80
2022-11-24T05:00:40.470Z,7.33
2022-11-24T05:03:42.106Z,6.20
2022-11-24T05:06:43.732Z,12.03
2022-11-24T05:10:04.500Z,10.80
2022-11-24T05:13:13.015Z,8.40
2022-11-24T05:16:14.719Z,8.73
2022-11-24T05:19:16.787Z,7.23
2022-11-24T05:22:18.390Z,6.03
2022-11-24T05:25:20.463Z,7.90
2022-11-24T05:28:22.093Z,9.00
2022-11-24T05:31:23.868Z,6.83
2022-11-24T05:34:26.145Z,13.37
2022-11-24T05:37:31.285Z,10.73
2022-11-24T05:40:32.964Z,6.73
2022-11-24T05:43:34.998Z,13.03
2022-11-24T05:46:37.080Z,12.53
2022-11-24T05:49:38.846Z,9.40
2022-11-24T05:52:40.629Z,6.63
2022-11-24T05:55:43.131Z,13.70
2022-11-24T05:58:44.852Z,12.63
2022-11-24T06:01:46.677Z,11.07
2022-11-24T06:04:48.495Z,11.27
2022-11-24T06:07:50.409Z,9.77
2022-11-24T06:10:52.051Z,9.10
2022-11-24T06:13:53.694Z,8.47
2022-11-24T06:16:58.376Z,11.07
2022-11-24T06:20:00.153Z,9.87
2022-11-24T06:23:01.843Z,11.93
2022-11-24T06:26:03.933Z,8.77
2022-11-24T06:29:05.680Z,12.00
2022-11-24T06:32:07.621Z,12.50
2022-11-24T06:35:09.700Z,8.93
2022-11-24T06:38:11.320Z,11.93
2022-11-24T06:41:15.853Z,8.43
2022-11-24T06:44:17.707Z,11.07
2022-11-24T06:47:19.460Z,9.53
2022-11-24T06:50:21.554Z,9.43
2022-11-24T06:53:23.204Z,11.30
2022-11-24T06:56:25.114Z,10.20
2022-11-24T06:59:27.659Z,8.57
2022-11-24T07:02:29.401Z,7.60
2022-11-24T07:05:31.102Z,8.60
2022-11-24T07:08:32.762Z,12.73
2022-11-24T07:11:35.154Z,10.43
2022-11-24T07:14:36.990Z,8.87
2022-11-24T07:17:40.111Z,10.97
2022-11-24T07:20:41.772Z,12.07
2022-11-24T07:23:44.081Z,12.13
2022-11-24T07:26:45.745Z,7.67
2022-11-24T07:29:57.274Z,7.87
2022-11-24T07:33:03.246Z,8.83
2022-11-24T07:36:09.163Z,12.37
2022-11-24T07:39:10.854Z,8.07
2022-11-24T07:42:12.560Z,15.33
2022-11-24T07:45:14.317Z,11.70
2022-11-24T07:48:15.985Z,12.70
2022-11-24T07:51:19.066Z,12.07
2022-11-24T07:54:20.750Z,11.57
2022-11-24T07:57:23.385Z,10.53
2022-11-24T08:00:25.024Z,9.70
2022-11-24T08:03:26.942Z,6.97
2022-11-24T08:06:36.180Z,10.20
2022-11-24T08:09:41.202Z,15.23
2022-11-24T08:12:43.887Z,17.37
2022-11-24T08:15:46.274Z,12.47
2022-11-24T08:18:52.740Z,14.87
2022-11-24T08:21:55.814Z,10.73
2022-11-24T08:24:57.601Z,10.07
2022-11-24T08:28:00.542Z,9.83
2022-11-24T08:31:07.362Z,11.17
2022-11-24T08:34:10.113Z,12.03
2022-11-24T08:37:11.738Z,10.20
2022-11-24T08:40:13.818Z,6.90
2022-11-24T08:43:15.441Z,11.90
2022-11-24T08:46:32.281Z,11.30
2022-11-24T08:49:33.964Z,14.73
2022-11-24T08:53:27.158Z,10.90
2022-11-24T08:56:31.261Z,13.67
2022-11-24T08:59:34.072Z,10.87
2022-11-24T09:02:36.899Z,10.17
2022-11-24T09:05:51.573Z,11.37
2022-11-24T09:09:00.423Z,10.53
2022-11-24T09:12:02.043Z,9.20
2022-11-24T09:15:03.780Z,8.93
2022-11-24T09:18:10.539Z,11.20
2022-11-24T09:21:18.711Z,9.97
2022-11-24T09:24:20.372Z,8.67
2022-11-24T09:27:22.193Z,11.77
2022-11-24T09:30:23.895Z,11.50
2022-11-24T09:33:25.553Z,7.97
2022-11-24T09:36:27.896Z,11.23
2022-11-24T09:39:29.573Z,9.20
2022-11-24T09:43:02.185Z,10.03
2022-11-24T09:46:16.802Z,10.07
2022-11-24T09:49:30.380Z,9.50
2022-11-24T09:53:14.128Z,12.40
2022-11-24T09:56:21.917Z,10.23
2022-11-24T09:59:25.042Z,11.80
2022-11-24T10:02:27.373Z,7.40
2022-11-24T10:05:33.889Z,10.57
2022-11-24T10:08:38.839Z,13.57
2022-11-24T10:12:10.002Z,8.27
2022-11-24T10:15:49.156Z,10.90
2022-11-24T10:19:36.475Z,8.27
2022-11-24T10:22:56.451Z,7.03
2022-11-24T10:26:00.201Z,9.50
2022-11-24T10:29:08.745Z,8.60
2022-11-24T10:32:24.111Z,9.80
2022-11-24T10:35:53.840Z,10.03
2022-11-24T10:39:39.216Z,8.50
2022-11-24T10:42:43.420Z,9.50
2022-11-24T10:45:45.515Z,5.93
2022-11-24T10:49:14.995Z,13.23
2022-11-24T10:52:56.720Z,9.50
2022-11-24T10:56:01.005Z,10.77
2022-11-24T10:59:22.319Z,11.17
2022-11-24T11:02:42.159Z,9.67
2022-11-24T11:06:14.465Z,5.70
2022-11-24T11:09:21.714Z,10.87
2022-11-24T11:12:43.761Z,11.53
2022-11-24T11:15:46.337Z,7.20
2022-11-24T11:18:49.805Z,5.27
2022-11-24T11:22:12.047Z,9.00
2022-11-24T11:25:13.697Z,8.93
2022-11-24T11:28:28.460Z,5.73
2022-11-24T11:31:32.988Z,7.90
2022-11-24T11:34:36.730Z,6.40
2022-11-24T11:37:38.870Z,7.77
2022-11-24T11:40:42.805Z,8.10
2022-11-24T11:43:47.005Z,6.30
2022-11-24T11:46:48.689Z,7.00
2022-11-24T11:49:53.729Z,6.90
2022-11-24T11:53:26.394Z,7.87
2022-11-24T11:56:35.815Z,7.60
2022-11-24T12:00:02.127Z,7.53
2022-11-24T12:03:22.638Z,5.97
2022-11-24T12:06:43.163Z,5.37
2022-11-24T12:10:21.313Z,5.40
2022-11-24T12:13:38.258Z,8.43
2022-11-24T12:16:46.572Z,7.07
2022-11-24T12:20:17.292Z,7.20
2022-11-24T12:23:43.173Z,5.37
2022-11-24T12:26:53.876Z,6.50
2022-11-24T12:30:04.708Z,7.23
2022-11-24T12:33:31.349Z,6.10
2022-11-24T12:36:41.785Z,6.73
2022-11-24T12:39:56.905Z,4.10
2022-11-24T12:43:08.312Z,4.50
2022-11-24T12:46:23.740Z,5.03
2022-11-24T12:49:48.998Z,7.40
2022-11-24T12:53:10.221Z,6.67
2022-11-24T12:56:17.343Z,7.47
2022-11-24T12:59:35.507Z,7.93
2022-11-24T13:03:09.219Z,5.17
2022-11-24T13:06:19.780Z,4.00
2022-11-24T13:09:21.545Z,5.27
2022-11-24T13:12:23.218Z,2.63
2022-11-24T13:15:45.298Z,4.63
2022-11-24T13:18:53.700Z,4.70
2022-11-24T13:22:15.629Z,7.40
2022-11-24T13:25:30.709Z,5.20
2022-11-24T13:29:03.605Z,3.33
2022-11-24T13:32:14.849Z,6.90
2022-11-24T13:35:16.872Z,5.90
2022-11-24T13:38:41.879Z,5.83
2022-11-24T13:42:06.411Z,7.43
2022-11-24T13:45:40.809Z,8.83
2022-11-24T13:48:46.711Z,5.27
2022-11-24T13:51:48.413Z,4.87
2022-11-24T13:54:50.270Z,4.93
2022-11-24T13:57:58.943Z,5.53
2022-11-24T14:01:30.794Z,6.67
2022-11-24T14:04:35.699Z,6.13
2022-11-24T14:07:40.686Z,5.27
2022-11-24T14:10:46.107Z,9.07
2022-11-24T14:13:47.835Z,5.13
2022-11-24T14:17:05.407Z,6.30
2022-11-24T14:20:22.671Z,5.63
2022-11-24T14:23:24.537Z,6.50
2022-11-24T14:26:34.200Z,4.50
2022-11-24T14:29:35.840Z,4.43
2022-11-24T14:32:40.298Z,4.37
2022-11-24T14:35:47.535Z,4.83
2022-11-24T14:38:49.820Z,3.37
2022-11-24T14:42:00.229Z,3.97
2022-11-24T14:45:03.930Z,4.87
2022-11-24T14:48:13.949Z,3.13
2022-11-24T14:51:21.031Z,5.40
2022-11-24T14:54:23.490Z,4.77
2022-11-24T14:57:32.739Z,4.30
2022-11-24T15:00:34.498Z,3.70
2022-11-24T15:04:13.045Z,5.50
2022-11-24T15:07:27.532Z,5.77
2022-11-24T15:10:33.914Z,3.93
2022-11-24T15:13:38.264Z,3.30
2022-11-24T15:16:40.372Z,3.90
2022-11-24T15:19:44.762Z,4.20
2022-11-24T15:22:46.714Z,4.40
2022-11-24T15:25:49.809Z,3.60
2022-11-24T15:28:51.470Z,6.00
2022-11-24T15:31:53.296Z,5.33
2022-11-24T15:34:55.049Z,6.07
2022-11-24T15:37:56.964Z,5.93
2022-11-24T15:41:00.799Z,7.30
2022-11-24T15:44:02.574Z,5.63
2022-11-24T15:47:04.369Z,5.23
2022-11-24T15:50:06.879Z,5.37
2022-11-24T15:53:19.060Z,4.47
2022-11-24T15:56:33.819Z,6.73
2022-11-24T15:59:36.073Z,4.37
2022-11-24T16:02:37.882Z,7.60
2022-11-24T16:05:40.521Z,7.87
2022-11-24T16:08:42.135Z,9.17
2022-11-24T16:11:43.858Z,7.57
2022-11-24T16:14:50.595Z,8.30
2022-11-24T16:17:52.319Z,10.47
2022-11-24T16:20:53.942Z,10.77
2022-11-24T16:23:55.546Z,10.80
2022-11-24T16:26:57.156Z,13.83
2022-11-24T16:29:58.964Z,23.10
2022-11-24T16:33:07.857Z,18.03
2022-11-24T16:36:09.593Z,12.30
2022-11-24T16:39:11.420Z,9.87
2022-11-24T16:42:13.068Z,8.77
2022-11-24T16:45:14.804Z,7.63
2022-11-24T16:48:16.449Z,5.67
2022-11-24T16:51:20.583Z,6.00
2022-11-24T16:54:22.427Z,4.67
2022-11-24T16:57:24.122Z,6.13
2022-11-24T17:00:25.777Z,5.47
2022-11-24T17:03:33.250Z,4.63
2022-11-24T17:06:35.457Z,3.50
2022-11-24T17:09:40.573Z,3.60
2022-11-24T17:12:43.364Z,3.87
2022-11-24T17:15:49.642Z,5.13
2022-11-24T17:18:54.858Z,3.53
2022-11-24T17:21:56.510Z,3.93
2022-11-24T17:24:58.148Z,3.40
2022-11-24T17:27:59.825Z,5.27
2022-11-24T17:31:23.357Z,7.40
2022-11-24T17:34:25.238Z,6.97
2022-11-24T17:37:26.842Z,6.03
2022-11-24T17:40:29.749Z,6.37
2022-11-24T17:43:32.153Z,6.30
2022-11-24T17:46:34.377Z,4.47
2022-11-24T17:49:35.984Z,6.37
2022-11-24T17:52:39.708Z,6.77
2022-11-24T17:55:41.946Z,4.93
2022-11-24T17:58:45.607Z,7.10
2022-11-24T18:01:47.243Z,6.13
2022-11-24T18:04:48.895Z,6.10
2022-11-24T18:07:50.538Z,7.73
2022-11-24T18:10:52.243Z,8.20
2022-11-24T18:14:04.587Z,7.87
2022-11-24T18:17:06.490Z,7.20
2022-11-24T18:20:11.536Z,8.23
2022-11-24T18:23:13.195Z,11.70
2022-11-24T18:26:16.379Z,7.47
2022-11-24T18:29:18.136Z,5.37
2022-11-24T18:32:19.813Z,8.37
2022-11-24T18:35:21.454Z,7.13
2022-11-24T18:38:23.375Z,5.77
2022-11-24T18:41:25.036Z,6.17
2022-11-24T18:44:26.687Z,6.33
2022-11-24T18:47:28.292Z,4.83
2022-11-24T18:50:30.007Z,5.57
2022-11-24T18:53:31.658Z,7.87
2022-11-24T18:56:33.322Z,8.33
2022-11-24T18:59:35.109Z,6.57
2022-11-24T19:02:36.877Z,6.20
2022-11-24T19:05:41.189Z,8.17
2022-11-24T19:08:43.310Z,7.50
2022-11-24T19:11:46.196Z,4.30
2022-11-24T19:14:47.823Z,5.53
2022-11-24T19:17:54.001Z,9.43
2022-11-24T19:20:57.372Z,4.43
2022-11-24T19:24:04.578Z,7.83
2022-11-24T19:27:07.836Z,6.43
2022-11-24T19:30:09.882Z,11.37
2022-11-24T19:33:11.568Z,7.73
2022-11-24T19:36:15.758Z,7.23
2022-11-24T19:39:17.853Z,7.43
2022-11-24T19:42:19.546Z,6.60
2022-11-24T19:45:22.397Z,5.83
2022-11-24T19:48:24.096Z,9.83
2022-11-24T19:51:30.644Z,7.00
2022-11-24T19:54:34.262Z,6.03
2022-11-24T19:57:39.182Z,5.37
2022-11-24T20:00:40.866Z,5.73
2022-11-24T20:03:43.897Z,7.53
2022-11-24T20:06:47.540Z,7.13
2022-11-24T20:09:49.205Z,7.30
2022-11-24T20:12:50.866Z,7.57
2022-11-24T20:15:52.642Z,5.27
2022-11-24T20:18:59.225Z,6.30
2022-11-24T20:22:00.941Z,6.27
2022-11-24T20:25:02.630Z,6.27
2022-11-24T20:28:04.536Z,6.37
2022-11-24T20:31:12.128Z,14.13
2022-11-24T20:34:14.258Z,5.07
2022-11-24T20:37:15.995Z,8.57
2022-11-24T20:40:17.631Z,5.97
2022-11-24T20:43:19.277Z,7.67
2022-11-24T20:46:27.045Z,7.03
2022-11-24T20:49:28.831Z,7.57
2022-11-24T20:52:30.553Z,5.20
2022-11-24T20:55:33.596Z,5.20
2022-11-24T20:58:42.987Z,6.93
2022-11-24T21:01:46.492Z,7.70
2022-11-24T21:04:48.239Z,10.93
2022-11-24T21:07:49.944Z,8.60
2022-11-24T21:10:56.204Z,5.23
2022-11-24T21:13:58.157Z,7.57
2022-11-24T21:16:59.791Z,8.53
2022-11-24T21:20:01.482Z,7.50
2022-11-24T21:23:04.110Z,6.77
2022-11-24T21:26:13.034Z,6.50
2022-11-24T21:29:19.142Z,8.27
2022-11-24T21:32:20.773Z,8.13
2022-11-24T21:35:22.466Z,8.00
2022-11-24T21:38:24.104Z,4.93
2022-11-24T21:41:28.184Z,8.90
2022-11-24T21:44:30.975Z,4.73
2022-11-24T21:47:33.592Z,8.60
2022-11-24T21:50:35.764Z,4.90
2022-11-24T21:53:38.827Z,8.27
2022-11-24T21:56:40.481Z,8.93
2022-11-24T21:59:42.129Z,10.03
2022-11-24T22:02:43.909Z,7.90
2022-11-24T22:05:59.087Z,4.67
2022-11-24T22:09:00.818Z,6.00
2022-11-24T22:12:02.438Z,8.00
2022-11-24T22:15:04.315Z,10.07
2022-11-24T22:18:06.016Z,5.07
2022-11-24T22:21:10.242Z,6.90
2022-11-24T22:24:16.069Z,6.73
2022-11-24T22:27:17.712Z,4.70
2022-11-24T22:30:19.631Z,7.00
2022-11-24T22:33:21.262Z,9.00
2022-11-24T22:36:25.516Z,7.00
2022-11-24T22:39:27.155Z,7.53
2022-11-24T22:42:29.052Z,9.67
2022-11-24T22:45:30.799Z,6.47
2022-11-24T22:48:33.137Z,5.73
2022-11-24T22:51:38.878Z,6.23
2022-11-24T22:54:41.160Z,8.07
2022-11-24T22:57:47.410Z,5.97
2022-11-24T23:00:50.014Z,4.27
2022-11-24T23:03:55.972Z,6.57
2022-11-24T23:06:57.675Z,6.00
2022-11-24T23:10:18.035Z,8.10
2022-11-24T23:13:19.778Z,7.40
2022-11-24T23:16:21.999Z,6.80
2022-11-24T23:19:23.649Z,5.50
2022-11-24T23:22:25.413Z,8.10
2022-11-24T23:25:27.217Z,6.97
2022-11-24T23:28:29.199Z,8.00
2022-11-24T23:31:31.130Z,6.57
2022-11-24T23:34:33.039Z,7.37
2022-11-24T23:38:00.023Z,7.40
2022-11-24T23:40:57.379Z,8.37
2022-11-24T23:44:00.005Z,6.80
2022-11-24T23:47:01.700Z,8.20
2022-11-24T23:50:08.275Z,5.63
2022-11-24T23:53:09.915Z,7.20
2022-11-24T23:56:17.319Z,7.43
2022-11-24T23:59:19.650Z,5.17
